createdAt,value
2017-04-07T00:00:07.600Z,6.57
2017-04-07T00:01:08.196Z,6.59
2017-04-07T00:02:08.786Z,6.56
2017-04-07T00:03:09.378Z,6.51
2017-04-07T00:04:09.972Z,6.51
2017-04-07T00:05:10.571Z,6.54
2017-04-07T00:06:11.168Z,6.49
2017-04-07T00:07:11.776Z,6.46
2017-04-07T00:08:12.382Z,6.35
2017-04-07T00:09:12.977Z,6.49
2017-04-07T00:10:13.576Z,6.45
2017-04-07T00:11:14.171Z,6.36
2017-04-07T00:12:14.761Z,6.38
2017-04-07T00:13:15.354Z,6.35
2017-04-07T00:14:15.948Z,6.31
2017-04-07T00:15:16.538Z,6.28
2017-04-07T00:16:17.133Z,6.41
2017-04-07T00:17:17.725Z,6.35
2017-04-07T00:18:18.323Z,6.35
2017-04-07T00:19:18.914Z,6.44
2017-04-07T00:20:19.507Z,6.33
2017-04-07T00:21:20.099Z,6.30
2017-04-07T00:22:20.694Z,6.27
2017-04-07T00:23:21.286Z,6.26
2017-04-07T00:24:21.878Z,6.24
2017-04-07T00:25:22.473Z,6.28
2017-04-07T00:26:23.071Z,6.22
2017-04-07T00:27:23.661Z,6.26
2017-04-07T00:28:24.262Z,6.28
2017-04-07T00:29:24.852Z,6.31
2017-04-07T00:30:25.450Z,6.22
2017-04-07T00:31:26.065Z,6.24
2017-04-07T00:32:26.656Z,6.17
2017-04-07T00:33:27.269Z,6.17
2017-04-07T00:34:27.863Z,6.12
2017-04-07T00:35:28.460Z,6.22
2017-04-07T00:36:29.063Z,6.16
2017-04-07T00:37:29.655Z,6.26
2017-04-07T00:38:30.247Z,6.14
2017-04-07T00:39:30.855Z,6.22
2017-04-07T00:40:31.449Z,6.14
2017-04-07T00:41:32.041Z,6.19
2017-04-07T00:42:32.640Z,6.19
2017-04-07T00:43:33.232Z,6.20
2017-04-07T00:44:33.840Z,6.26
2017-04-07T00:45:34.437Z,6.24
2017-04-07T00:46:35.028Z,6.26
2017-04-07T00:47:35.620Z,6.19
2017-04-07T00:48:36.219Z,6.22
2017-04-07T00:49:36.809Z,6.20
2017-04-07T00:50:37.400Z,6.20
2017-04-07T00:51:37.995Z,6.20
2017-04-07T00:52:38.586Z,6.27
2017-04-07T00:53:39.185Z,6.28
2017-04-07T00:54:39.776Z,6.33
2017-04-07T00:55:40.385Z,6.36
2017-04-07T00:56:40.983Z,6.31
2017-04-07T00:57:41.574Z,6.41
2017-04-07T00:58:42.172Z,6.22
2017-04-07T00:59:42.764Z,6.35
2017-04-07T01:00:43.379Z,6.35
2017-04-07T01:01:43.968Z,6.39
2017-04-07T01:02:44.561Z,6.33
2017-04-07T01:03:45.156Z,6.28
2017-04-07T01:04:45.748Z,6.36
2017-04-07T01:05:46.341Z,6.39
2017-04-07T01:06:46.935Z,6.46
2017-04-07T01:07:47.526Z,6.42
2017-04-07T01:08:48.120Z,6.45
2017-04-07T01:09:48.720Z,6.35
2017-04-07T01:10:49.315Z,6.44
2017-04-07T01:11:49.902Z,6.44
2017-04-07T01:12:50.494Z,6.39
2017-04-07T01:13:51.092Z,6.45
2017-04-07T01:14:51.688Z,6.39
2017-04-07T01:15:52.301Z,6.36
2017-04-07T01:16:52.895Z,6.48
2017-04-07T01:17:53.485Z,6.42
2017-04-07T01:18:54.080Z,6.42
2017-04-07T01:19:54.672Z,6.36
2017-04-07T01:20:55.265Z,6.22
2017-04-07T01:21:55.857Z,6.22
2017-04-07T01:22:56.456Z,6.19
2017-04-07T01:23:57.045Z,6.17
2017-04-07T01:24:57.645Z,6.08
2017-04-07T01:25:58.241Z,5.98
2017-04-07T01:26:58.832Z,5.98
2017-04-07T01:27:59.445Z,5.89
2017-04-07T01:29:00.035Z,5.83
2017-04-07T01:30:00.634Z,5.82
2017-04-07T01:31:01.224Z,5.79
2017-04-07T01:32:01.815Z,5.75
2017-04-07T01:33:02.414Z,5.69
2017-04-07T01:34:03.003Z,5.68
2017-04-07T01:35:03.602Z,5.64
2017-04-07T01:36:04.205Z,5.69
2017-04-07T01:37:04.789Z,5.65
2017-04-07T01:38:05.396Z,5.59
2017-04-07T01:39:05.994Z,5.62
2017-04-07T01:40:06.584Z,5.59
2017-04-07T01:41:07.183Z,5.65
2017-04-07T01:42:07.771Z,5.68
2017-04-07T01:43:08.370Z,5.66
2017-04-07T01:44:08.967Z,5.62
2017-04-07T01:45:09.559Z,5.62
2017-04-07T01:46:10.149Z,5.71
2017-04-07T01:47:10.740Z,5.61
2017-04-07T01:48:11.334Z,5.71
2017-04-07T01:49:11.931Z,5.75
2017-04-07T01:50:12.522Z,5.72
2017-04-07T01:51:13.114Z,5.80
2017-04-07T01:52:13.712Z,5.76
2017-04-07T01:53:14.308Z,5.79
2017-04-07T01:54:14.922Z,5.80
2017-04-07T01:55:15.511Z,5.82
2017-04-07T01:56:16.123Z,5.68
2017-04-07T01:57:16.714Z,5.69
2017-04-07T01:58:17.306Z,5.71
2017-04-07T01:59:17.921Z,5.69
2017-04-07T02:00:18.517Z,5.73
2017-04-07T02:01:19.108Z,5.76
2017-04-07T02:02:19.705Z,5.76
2017-04-07T02:03:20.295Z,5.79
2017-04-07T02:04:20.902Z,5.76
2017-04-07T02:05:21.495Z,5.66
2017-04-07T02:06:22.089Z,5.69
2017-04-07T02:07:22.686Z,5.71
2017-04-07T02:08:23.279Z,5.68
2017-04-07T02:09:23.870Z,5.72
2017-04-07T02:10:24.466Z,5.75
2017-04-07T02:11:25.057Z,5.69
2017-04-07T02:12:25.649Z,5.72
2017-04-07T02:13:26.247Z,5.72
2017-04-07T02:14:26.836Z,5.64
2017-04-07T02:15:27.431Z,5.66
2017-04-07T02:16:28.022Z,5.66
2017-04-07T02:17:28.632Z,5.54
2017-04-07T02:18:29.223Z,5.51
2017-04-07T02:19:29.816Z,5.64
2017-04-07T02:20:30.411Z,5.53
2017-04-07T02:21:31.002Z,5.48
2017-04-07T02:22:31.595Z,5.54
2017-04-07T02:23:32.193Z,5.50
2017-04-07T02:24:32.788Z,5.46
2017-04-07T02:25:33.385Z,5.50
2017-04-07T02:26:33.973Z,5.51
2017-04-07T02:27:34.581Z,5.48
2017-04-07T02:28:35.176Z,5.44
2017-04-07T02:29:35.784Z,5.36
2017-04-07T02:30:36.396Z,5.33
2017-04-07T02:31:36.988Z,5.25
2017-04-07T02:32:37.596Z,5.23
2017-04-07T02:33:38.187Z,5.30
2017-04-07T02:34:38.779Z,5.29
2017-04-07T02:35:39.374Z,5.26
2017-04-07T02:36:39.964Z,5.26
2017-04-07T02:37:40.561Z,5.23
2017-04-07T02:38:41.151Z,5.28
2017-04-07T02:39:41.766Z,5.21
2017-04-07T02:40:42.353Z,5.17
2017-04-07T02:41:42.952Z,5.23
2017-04-07T02:42:43.546Z,5.21
2017-04-07T02:43:44.137Z,5.21
2017-04-07T02:44:44.746Z,5.18
2017-04-07T02:45:45.342Z,5.21
2017-04-07T02:46:45.936Z,5.08
2017-04-07T02:47:46.526Z,5.17
2017-04-07T02:48:47.137Z,5.25
2017-04-07T02:49:47.727Z,5.23
2017-04-07T02:50:48.326Z,5.14
2017-04-07T02:51:48.920Z,5.23
2017-04-07T02:52:49.510Z,5.18
2017-04-07T02:53:50.118Z,5.26
2017-04-07T02:54:50.710Z,5.20
2017-04-07T02:55:51.302Z,5.20
2017-04-07T02:56:51.896Z,5.28
2017-04-07T02:57:52.487Z,5.20
2017-04-07T02:58:53.080Z,5.20
2017-04-07T02:59:53.688Z,5.26
2017-04-07T03:00:54.301Z,5.12
2017-04-07T03:01:54.879Z,5.18
2017-04-07T03:02:55.468Z,5.18
2017-04-07T03:03:56.059Z,5.20
2017-04-07T03:04:56.654Z,5.23
2017-04-07T03:05:57.245Z,5.20
2017-04-07T03:06:57.843Z,5.26
2017-04-07T03:07:58.438Z,5.14
2017-04-07T03:08:59.026Z,5.11
2017-04-07T03:09:59.619Z,5.17
2017-04-07T03:11:00.211Z,5.15
2017-04-07T03:12:00.809Z,5.08
2017-04-07T03:13:01.403Z,5.12
2017-04-07T03:14:01.990Z,5.18
2017-04-07T03:15:02.584Z,5.18
2017-04-07T03:16:03.184Z,5.12
2017-04-07T03:17:03.772Z,5.17
2017-04-07T03:18:04.363Z,5.05
2017-04-07T03:19:04.960Z,5.20
2017-04-07T03:20:05.552Z,5.18
2017-04-07T03:21:06.143Z,5.21
2017-04-07T03:22:06.735Z,5.18
2017-04-07T03:23:07.327Z,5.08
2017-04-07T03:24:07.919Z,5.25
2017-04-07T03:25:08.510Z,5.17
2017-04-07T03:26:09.109Z,5.18
2017-04-07T03:27:09.698Z,5.20
2017-04-07T03:28:10.291Z,5.26
2017-04-07T03:29:10.883Z,5.26
2017-04-07T03:30:11.480Z,5.28
2017-04-07T03:31:12.071Z,5.30
2017-04-07T03:32:12.662Z,5.28
2017-04-07T03:33:13.260Z,5.28
2017-04-07T03:34:13.850Z,5.23
2017-04-07T03:35:14.441Z,5.30
2017-04-07T03:36:15.039Z,5.23
2017-04-07T03:37:15.629Z,5.23
2017-04-07T03:38:16.220Z,5.28
2017-04-07T03:39:16.834Z,5.21
2017-04-07T03:40:17.423Z,5.20
2017-04-07T03:41:18.014Z,5.30
2017-04-07T03:42:18.606Z,5.30
2017-04-07T03:43:19.200Z,5.36
2017-04-07T03:44:19.806Z,5.30
2017-04-07T03:45:20.414Z,5.36
2017-04-07T03:46:21.005Z,5.44
2017-04-07T03:47:21.605Z,5.50
2017-04-07T03:48:22.198Z,5.53
2017-04-07T03:49:22.788Z,5.47
2017-04-07T03:50:23.384Z,5.50
2017-04-07T03:51:23.972Z,5.47
2017-04-07T03:52:24.565Z,5.48
2017-04-07T03:53:25.157Z,5.57
2017-04-07T03:54:25.750Z,5.59
2017-04-07T03:55:26.342Z,5.53
2017-04-07T03:56:26.941Z,5.54
2017-04-07T03:57:27.532Z,5.53
2017-04-07T03:58:28.123Z,5.54
2017-04-07T03:59:28.734Z,5.53
2017-04-07T04:00:29.323Z,5.46
2017-04-07T04:01:29.916Z,5.50
2017-04-07T04:02:30.508Z,5.41
2017-04-07T04:03:31.101Z,5.38
2017-04-07T04:04:31.694Z,5.39
2017-04-07T04:05:32.290Z,5.38
2017-04-07T04:06:32.880Z,5.35
2017-04-07T04:07:33.488Z,5.26
2017-04-07T04:08:34.086Z,5.21
2017-04-07T04:09:34.681Z,5.29
2017-04-07T04:10:35.270Z,5.26
2017-04-07T04:11:35.862Z,5.30
2017-04-07T04:12:36.455Z,5.23
2017-04-07T04:13:37.052Z,5.33
2017-04-07T04:14:37.642Z,5.28
2017-04-07T04:15:38.235Z,5.21
2017-04-07T04:16:38.831Z,5.17
2017-04-07T04:17:39.425Z,5.20
2017-04-07T04:18:40.015Z,5.23
2017-04-07T04:19:40.609Z,5.18
2017-04-07T04:20:41.207Z,5.12
2017-04-07T04:21:41.796Z,5.05
2017-04-07T04:22:42.390Z,5.05
2017-04-07T04:23:42.980Z,4.99
2017-04-07T04:24:43.583Z,4.99
2017-04-07T04:25:44.169Z,4.92
2017-04-07T04:26:44.760Z,4.97
2017-04-07T04:27:45.352Z,4.94
2017-04-07T04:28:45.960Z,4.86
2017-04-07T04:29:46.552Z,4.90
2017-04-07T04:30:47.144Z,4.90
2017-04-07T04:31:47.751Z,4.92
2017-04-07T04:32:48.350Z,4.94
2017-04-07T04:33:48.938Z,4.94
2017-04-07T04:34:49.539Z,4.96
2017-04-07T04:35:50.132Z,4.87
2017-04-07T04:36:50.723Z,4.97
2017-04-07T04:37:51.333Z,4.97
2017-04-07T04:38:51.930Z,4.96
2017-04-07T04:39:52.523Z,4.93
2017-04-07T04:40:53.115Z,4.93
2017-04-07T04:41:53.730Z,4.94
2017-04-07T04:42:54.337Z,4.94
2017-04-07T04:43:54.934Z,4.86
2017-04-07T04:44:55.528Z,4.97
2017-04-07T04:45:56.127Z,4.94
2017-04-07T04:46:56.719Z,4.97
2017-04-07T04:47:57.313Z,4.84
2017-04-07T04:48:57.907Z,4.84
2017-04-07T04:49:58.501Z,4.92
2017-04-07T04:50:59.095Z,4.80
2017-04-07T04:51:59.689Z,4.94
2017-04-07T04:53:00.290Z,4.99
2017-04-07T04:54:00.885Z,4.94
2017-04-07T04:55:01.479Z,4.99
2017-04-07T04:56:02.090Z,4.93
2017-04-07T04:57:02.690Z,4.94
2017-04-07T04:58:03.281Z,4.94
2017-04-07T04:59:03.879Z,5.08
2017-04-07T05:00:04.493Z,4.96
2017-04-07T05:01:05.109Z,5.08
2017-04-07T05:02:05.702Z,5.08
2017-04-07T05:03:06.312Z,5.12
2017-04-07T05:04:06.906Z,5.18
2017-04-07T05:05:07.509Z,5.25
2017-04-07T05:06:08.102Z,5.23
2017-04-07T05:07:08.706Z,5.14
2017-04-07T05:08:09.315Z,5.21
2017-04-07T05:09:09.929Z,5.30
2017-04-07T05:10:10.523Z,5.35
2017-04-07T05:11:11.118Z,5.32
2017-04-07T05:12:11.713Z,5.48
2017-04-07T05:13:12.311Z,5.50
2017-04-07T05:14:12.909Z,5.54
2017-04-07T05:15:13.510Z,5.50
2017-04-07T05:16:14.104Z,5.56
2017-04-07T05:17:14.706Z,5.66
2017-04-07T05:18:15.301Z,5.66
2017-04-07T05:19:15.913Z,5.73
2017-04-07T05:20:16.509Z,5.68
2017-04-07T05:21:17.105Z,5.73
2017-04-07T05:22:17.716Z,5.76
2017-04-07T05:23:18.316Z,5.82
2017-04-07T05:24:18.908Z,5.80
2017-04-07T05:25:19.506Z,5.90
2017-04-07T05:26:20.109Z,5.87
2017-04-07T05:27:20.701Z,5.86
2017-04-07T05:28:21.303Z,6.04
2017-04-07T05:29:21.897Z,6.02
2017-04-07T05:30:22.494Z,5.99
2017-04-07T05:31:23.099Z,6.09
2017-04-07T05:32:23.694Z,6.08
2017-04-07T05:33:24.290Z,6.09
2017-04-07T05:34:24.889Z,6.27
2017-04-07T05:35:25.490Z,6.12
2017-04-07T05:36:26.089Z,6.14
2017-04-07T05:37:26.685Z,6.24
2017-04-07T05:38:27.281Z,6.36
2017-04-07T05:39:27.879Z,6.28
2017-04-07T05:40:28.484Z,6.38
2017-04-07T05:41:29.098Z,6.42
2017-04-07T05:42:29.695Z,6.42
2017-04-07T05:43:30.318Z,6.77
2017-04-07T05:44:30.899Z,6.99
2017-04-07T05:45:31.494Z,7.42
2017-04-07T05:46:32.094Z,7.90
2017-04-07T05:47:32.712Z,8.48
2017-04-07T05:48:33.306Z,8.91
2017-04-07T05:49:33.929Z,9.44
2017-04-07T05:50:34.524Z,9.87
2017-04-07T05:51:35.143Z,10.28
2017-04-07T05:52:35.748Z,10.75
2017-04-07T05:53:36.348Z,11.25
2017-04-07T05:54:36.956Z,11.54
2017-04-07T05:55:37.576Z,12.13
2017-04-07T05:56:38.178Z,12.58
2017-04-07T05:57:38.797Z,13.04
2017-04-07T05:58:39.417Z,13.31
2017-04-07T05:59:40.019Z,13.72
2017-04-07T06:00:40.623Z,14.04
2017-04-07T06:01:41.228Z,14.36
2017-04-07T06:02:41.832Z,14.53
2017-04-07T06:03:42.453Z,14.85
2017-04-07T06:04:43.057Z,15.06
2017-04-07T06:05:43.664Z,15.24
2017-04-07T06:06:44.277Z,15.51
2017-04-07T06:07:44.887Z,15.75
2017-04-07T06:08:45.488Z,16.04
2017-04-07T06:09:46.093Z,16.24
2017-04-07T06:10:46.701Z,16.65
2017-04-07T06:11:47.306Z,16.72
2017-04-07T06:12:47.914Z,16.79
2017-04-07T06:13:48.525Z,16.89
2017-04-07T06:14:49.133Z,16.91
2017-04-07T06:15:49.745Z,17.15
2017-04-07T06:16:50.349Z,17.44
2017-04-07T06:17:50.964Z,17.78
2017-04-07T06:18:51.575Z,18.16
2017-04-07T06:19:52.181Z,18.52
2017-04-07T06:20:52.793Z,18.92
2017-04-07T06:21:53.419Z,19.14
2017-04-07T06:22:54.034Z,19.55
2017-04-07T06:23:54.748Z,19.81
2017-04-07T06:24:55.358Z,20.21
2017-04-07T06:25:55.967Z,20.60
2017-04-07T06:26:56.584Z,21.02
2017-04-07T06:27:57.192Z,21.22
2017-04-07T06:28:57.805Z,21.45
2017-04-07T06:29:58.417Z,21.70
2017-04-07T06:30:59.034Z,22.02
2017-04-07T06:31:59.649Z,22.38
2017-04-07T06:33:00.267Z,22.51
2017-04-07T06:34:00.878Z,22.72
2017-04-07T06:35:01.491Z,22.93
2017-04-07T06:36:02.121Z,23.02
2017-04-07T06:37:02.738Z,23.25
2017-04-07T06:38:03.355Z,23.55
2017-04-07T06:39:03.965Z,23.84
2017-04-07T06:40:04.582Z,24.08
2017-04-07T06:41:05.197Z,24.47
2017-04-07T06:42:05.827Z,24.69
2017-04-07T06:43:06.443Z,24.99
2017-04-07T06:44:07.059Z,25.22
2017-04-07T06:45:07.680Z,25.28
2017-04-07T06:46:08.289Z,25.40
2017-04-07T06:47:08.905Z,25.60
2017-04-07T06:48:09.527Z,25.87
2017-04-07T06:49:10.140Z,25.69
2017-04-07T06:50:10.757Z,25.60
2017-04-07T06:51:11.374Z,25.47
2017-04-07T06:52:11.991Z,25.31
2017-04-07T06:53:12.622Z,25.31
2017-04-07T06:54:13.254Z,25.40
2017-04-07T06:55:13.877Z,25.41
2017-04-07T06:56:14.489Z,25.62
2017-04-07T06:57:15.109Z,25.72
2017-04-07T06:58:15.726Z,25.91
2017-04-07T06:59:16.349Z,26.10
2017-04-07T07:00:16.963Z,26.37
2017-04-07T07:01:17.580Z,26.58
2017-04-07T07:02:18.207Z,26.83
2017-04-07T07:03:18.816Z,27.22
2017-04-07T07:04:19.432Z,27.51
2017-04-07T07:05:20.051Z,27.85
2017-04-07T07:06:20.672Z,28.02
2017-04-07T07:07:21.304Z,28.27
2017-04-07T07:08:21.915Z,28.47
2017-04-07T07:09:22.535Z,28.57
2017-04-07T07:10:23.157Z,28.67
2017-04-07T07:11:23.774Z,28.85
2017-04-07T07:12:24.394Z,29.07
2017-04-07T07:13:25.019Z,29.23
2017-04-07T07:14:25.642Z,29.53
2017-04-07T07:15:26.260Z,29.79
2017-04-07T07:16:26.881Z,29.87
2017-04-07T07:17:27.502Z,30.02
2017-04-07T07:18:28.122Z,30.15
2017-04-07T07:19:28.741Z,30.40
2017-04-07T07:20:29.368Z,30.47
2017-04-07T07:21:30.011Z,30.46
2017-04-07T07:22:30.629Z,30.55
2017-04-07T07:23:31.265Z,30.63
2017-04-07T07:24:31.888Z,30.73
2017-04-07T07:25:32.509Z,30.88
2017-04-07T07:26:33.129Z,31.10
2017-04-07T07:27:33.751Z,31.33
2017-04-07T07:28:34.372Z,31.59
2017-04-07T07:29:34.996Z,31.78
2017-04-07T07:30:35.618Z,31.80
2017-04-07T07:31:36.242Z,31.85
2017-04-07T07:32:36.870Z,31.96
2017-04-07T07:33:37.489Z,32.14
2017-04-07T07:34:38.117Z,32.40
2017-04-07T07:35:38.736Z,32.60
2017-04-07T07:36:39.359Z,32.93
2017-04-07T07:37:39.982Z,33.27
2017-04-07T07:38:40.610Z,33.50
2017-04-07T07:39:41.237Z,33.92
2017-04-07T07:40:41.859Z,34.13
2017-04-07T07:41:42.487Z,34.11
2017-04-07T07:42:43.111Z,34.25
2017-04-07T07:43:43.730Z,34.35
2017-04-07T07:44:44.359Z,34.60
2017-04-07T07:45:45.000Z,34.74
2017-04-07T07:46:45.626Z,34.66
2017-04-07T07:47:46.248Z,34.66
2017-04-07T07:48:46.888Z,34.67
2017-04-07T07:49:47.511Z,34.95
2017-04-07T07:50:48.136Z,35.00
2017-04-07T07:51:48.786Z,35.18
2017-04-07T07:52:49.402Z,35.27
2017-04-07T07:53:50.026Z,35.48
2017-04-07T07:54:50.655Z,35.61
2017-04-07T07:55:51.276Z,35.64
2017-04-07T07:56:51.907Z,35.64
2017-04-07T07:57:52.531Z,35.68
2017-04-07T07:58:53.163Z,35.85
2017-04-07T07:59:53.789Z,36.14
2017-04-07T08:00:54.413Z,36.25
2017-04-07T08:01:55.034Z,36.23
2017-04-07T08:02:55.661Z,36.33
2017-04-07T08:03:56.286Z,36.36
2017-04-07T08:04:56.913Z,36.46
2017-04-07T08:05:57.556Z,36.52
2017-04-07T08:06:58.180Z,36.59
2017-04-07T08:07:58.807Z,36.72
2017-04-07T08:08:59.436Z,37.01
2017-04-07T08:10:00.069Z,37.08
2017-04-07T08:11:00.691Z,37.07
2017-04-07T08:12:01.324Z,37.03
2017-04-07T08:13:01.948Z,36.81
2017-04-07T08:14:02.580Z,36.84
2017-04-07T08:15:03.208Z,36.88
2017-04-07T08:16:03.837Z,36.91
2017-04-07T08:17:04.464Z,36.91
2017-04-07T08:18:05.090Z,36.80
2017-04-07T08:19:05.726Z,36.62
2017-04-07T08:20:06.351Z,36.52
2017-04-07T08:21:06.979Z,36.43
2017-04-07T08:22:07.606Z,36.33
2017-04-07T08:23:08.239Z,36.43
2017-04-07T08:24:08.865Z,36.72
2017-04-07T08:25:09.493Z,37.06
2017-04-07T08:26:10.120Z,37.30
2017-04-07T08:27:10.751Z,37.15
2017-04-07T08:28:11.380Z,37.08
2017-04-07T08:29:12.007Z,36.91
2017-04-07T08:30:12.639Z,36.88
2017-04-07T08:31:13.263Z,37.07
2017-04-07T08:32:13.909Z,37.10
2017-04-07T08:33:14.537Z,37.18
2017-04-07T08:34:15.180Z,37.32
2017-04-07T08:35:15.798Z,37.53
2017-04-07T08:36:16.432Z,37.60
2017-04-07T08:37:17.058Z,37.74
2017-04-07T08:38:17.689Z,37.72
2017-04-07T08:39:18.319Z,37.87
2017-04-07T08:40:18.999Z,38.08
2017-04-07T08:41:19.630Z,38.05
2017-04-07T08:42:20.259Z,38.34
2017-04-07T08:43:20.893Z,38.54
2017-04-07T08:44:21.539Z,38.89
2017-04-07T08:45:22.167Z,39.04
2017-04-07T08:46:22.795Z,39.17
2017-04-07T08:47:23.424Z,39.21
2017-04-07T08:48:24.053Z,39.02
2017-04-07T08:49:24.698Z,38.82
2017-04-07T08:50:25.347Z,38.84
2017-04-07T08:51:25.977Z,38.79
2017-04-07T08:52:26.611Z,38.71
2017-04-07T08:53:27.237Z,38.26
2017-04-07T08:54:27.863Z,38.12
2017-04-07T08:55:28.493Z,38.01
2017-04-07T08:56:29.136Z,37.93
2017-04-07T08:57:29.781Z,38.05
2017-04-07T08:58:30.410Z,38.09
2017-04-07T08:59:31.043Z,38.39
2017-04-07T09:00:31.690Z,38.54
2017-04-07T09:01:32.315Z,38.64
2017-04-07T09:02:32.947Z,38.62
2017-04-07T09:03:33.576Z,38.62
2017-04-07T09:04:34.207Z,38.69
2017-04-07T09:05:34.837Z,38.87
2017-04-07T09:06:35.482Z,38.89
2017-04-07T09:07:36.110Z,39.26
2017-04-07T09:08:36.740Z,39.43
2017-04-07T09:09:37.390Z,39.71
2017-04-07T09:10:38.016Z,39.94
2017-04-07T09:11:38.645Z,40.04
2017-04-07T09:12:39.290Z,40.33
2017-04-07T09:13:39.925Z,40.38
2017-04-07T09:14:40.557Z,40.54
2017-04-07T09:15:41.201Z,40.77
2017-04-07T09:16:41.830Z,40.75
2017-04-07T09:17:42.459Z,40.73
2017-04-07T09:18:43.088Z,40.65
2017-04-07T09:19:43.725Z,40.75
2017-04-07T09:20:44.349Z,41.07
2017-04-07T09:21:44.979Z,41.28
2017-04-07T09:22:45.622Z,41.87
2017-04-07T09:23:46.252Z,42.07
2017-04-07T09:24:46.881Z,42.04
2017-04-07T09:25:47.515Z,41.75
2017-04-07T09:26:48.142Z,41.70
2017-04-07T09:27:48.773Z,41.41
2017-04-07T09:28:49.405Z,41.45
2017-04-07T09:29:50.035Z,41.45
2017-04-07T09:30:50.666Z,41.87
2017-04-07T09:31:51.302Z,42.20
2017-04-07T09:32:51.928Z,42.31
2017-04-07T09:33:52.559Z,42.48
2017-04-07T09:34:53.191Z,42.41
2017-04-07T09:35:53.821Z,42.31
2017-04-07T09:36:54.451Z,42.20
2017-04-07T09:37:55.081Z,42.25
2017-04-07T09:38:55.713Z,42.07
2017-04-07T09:39:56.345Z,41.57
2017-04-07T09:40:56.975Z,40.75
2017-04-07T09:41:57.610Z,40.20
2017-04-07T09:42:58.237Z,39.92
2017-04-07T09:43:58.866Z,39.78
2017-04-07T09:44:59.498Z,39.80
2017-04-07T09:46:00.130Z,39.77
2017-04-07T09:47:00.758Z,39.68
2017-04-07T09:48:01.394Z,39.65
2017-04-07T09:49:02.022Z,39.52
2017-04-07T09:50:02.649Z,39.44
2017-04-07T09:51:03.281Z,39.51
2017-04-07T09:52:03.918Z,39.74
2017-04-07T09:53:04.567Z,39.93
2017-04-07T09:54:05.211Z,39.92
2017-04-07T09:55:05.842Z,39.93
2017-04-07T09:56:06.473Z,39.81
2017-04-07T09:57:07.098Z,39.59
2017-04-07T09:58:07.729Z,39.59
2017-04-07T09:59:08.358Z,39.67
2017-04-07T10:00:08.988Z,39.55
2017-04-07T10:01:09.617Z,39.37
2017-04-07T10:02:10.251Z,39.04
2017-04-07T10:03:10.878Z,38.92
2017-04-07T10:04:11.525Z,38.86
2017-04-07T10:05:12.152Z,39.17
2017-04-07T10:06:12.782Z,39.30
2017-04-07T10:07:13.411Z,39.56
2017-04-07T10:08:14.038Z,39.55
2017-04-07T10:09:14.667Z,39.58
2017-04-07T10:10:15.297Z,39.70
2017-04-07T10:11:15.924Z,39.52
2017-04-07T10:12:16.569Z,39.24
2017-04-07T10:13:17.194Z,39.11
2017-04-07T10:14:17.826Z,39.17
2017-04-07T10:15:18.459Z,39.34
2017-04-07T10:16:19.081Z,39.52
2017-04-07T10:17:19.709Z,39.72
2017-04-07T10:18:20.336Z,39.70
2017-04-07T10:19:20.972Z,39.68
2017-04-07T10:20:21.592Z,39.46
2017-04-07T10:21:22.218Z,39.21
2017-04-07T10:22:22.852Z,38.74
2017-04-07T10:23:23.477Z,38.26
2017-04-07T10:24:24.102Z,37.83
2017-04-07T10:25:24.737Z,37.55
2017-04-07T10:26:25.379Z,36.99
2017-04-07T10:27:26.006Z,36.14
2017-04-07T10:28:26.640Z,34.99
2017-04-07T10:29:27.263Z,33.77
2017-04-07T10:30:27.889Z,32.65
2017-04-07T10:31:28.519Z,31.76
2017-04-07T10:32:29.148Z,30.77
2017-04-07T10:33:29.772Z,29.82
2017-04-07T10:34:30.407Z,28.93
2017-04-07T10:35:31.030Z,28.12
2017-04-07T10:36:31.660Z,27.48
2017-04-07T10:37:32.288Z,26.85
2017-04-07T10:38:32.908Z,26.29
2017-04-07T10:39:33.532Z,25.83
2017-04-07T10:40:34.168Z,25.47
2017-04-07T10:41:34.794Z,25.21
2017-04-07T10:42:35.432Z,24.91
2017-04-07T10:43:36.051Z,24.50
2017-04-07T10:44:36.670Z,24.10
2017-04-07T10:45:37.289Z,23.78
2017-04-07T10:46:37.914Z,23.51
2017-04-07T10:47:38.530Z,23.34
2017-04-07T10:48:39.149Z,23.12
2017-04-07T10:49:39.765Z,23.00
2017-04-07T10:50:40.383Z,22.87
2017-04-07T10:51:41.006Z,22.70
2017-04-07T10:52:41.618Z,22.38
2017-04-07T10:53:42.255Z,22.18
2017-04-07T10:54:42.868Z,22.06
2017-04-07T10:55:43.499Z,21.95
2017-04-07T10:56:44.133Z,21.79
2017-04-07T10:57:44.744Z,21.66
2017-04-07T10:58:45.362Z,21.46
2017-04-07T10:59:45.974Z,21.30
2017-04-07T11:00:46.590Z,21.18
2017-04-07T11:01:47.203Z,20.97
2017-04-07T11:02:47.815Z,21.05
2017-04-07T11:03:48.445Z,20.96
2017-04-07T11:04:49.059Z,20.87
2017-04-07T11:05:49.671Z,20.75
2017-04-07T11:06:50.285Z,20.74
2017-04-07T11:07:50.912Z,20.60
2017-04-07T11:08:51.528Z,20.43
2017-04-07T11:09:52.141Z,20.39
2017-04-07T11:10:52.754Z,20.37
2017-04-07T11:11:53.371Z,20.32
2017-04-07T11:12:53.980Z,20.31
2017-04-07T11:13:54.591Z,20.31
2017-04-07T11:14:55.203Z,20.21
2017-04-07T11:15:55.821Z,20.14
2017-04-07T11:16:56.432Z,19.99
2017-04-07T11:17:57.052Z,19.95
2017-04-07T11:18:57.658Z,19.79
2017-04-07T11:19:58.269Z,19.77
2017-04-07T11:20:58.882Z,19.67
2017-04-07T11:21:59.493Z,19.47
2017-04-07T11:23:00.110Z,19.34
2017-04-07T11:24:00.721Z,19.21
2017-04-07T11:25:01.331Z,19.21
2017-04-07T11:26:01.966Z,19.07
2017-04-07T11:27:02.587Z,18.96
2017-04-07T11:28:03.200Z,18.88
2017-04-07T11:29:03.817Z,18.84
2017-04-07T11:30:04.429Z,18.80
2017-04-07T11:31:05.034Z,18.73
2017-04-07T11:32:05.650Z,18.70
2017-04-07T11:33:06.264Z,18.77
2017-04-07T11:34:06.880Z,18.66
2017-04-07T11:35:07.484Z,18.71
2017-04-07T11:36:08.100Z,18.80
2017-04-07T11:37:08.707Z,18.77
2017-04-07T11:38:09.316Z,18.75
2017-04-07T11:39:09.929Z,18.81
2017-04-07T11:40:10.536Z,18.78
2017-04-07T11:41:11.153Z,18.73
2017-04-07T11:42:11.762Z,18.77
2017-04-07T11:43:12.383Z,18.68
2017-04-07T11:44:13.002Z,18.66
2017-04-07T11:45:13.613Z,18.71
2017-04-07T11:46:14.223Z,18.59
2017-04-07T11:47:14.831Z,18.37
2017-04-07T11:48:15.440Z,18.49
2017-04-07T11:49:16.049Z,18.40
2017-04-07T11:50:16.661Z,18.47
2017-04-07T11:51:17.270Z,18.35
2017-04-07T11:52:17.880Z,18.34
2017-04-07T11:53:18.493Z,18.29
2017-04-07T11:54:19.106Z,18.38
2017-04-07T11:55:19.712Z,18.34
2017-04-07T11:56:20.338Z,18.47
2017-04-07T11:57:20.952Z,18.44
2017-04-07T11:58:21.559Z,18.40
2017-04-07T11:59:22.173Z,18.43
2017-04-07T12:00:22.778Z,18.45
2017-04-07T12:01:23.386Z,18.50
2017-04-07T12:02:23.997Z,18.49
2017-04-07T12:03:24.610Z,18.38
2017-04-07T12:04:25.218Z,18.34
2017-04-07T12:05:25.829Z,18.22
2017-04-07T12:06:26.457Z,18.11
2017-04-07T12:07:27.066Z,18.07
2017-04-07T12:08:27.675Z,18.23
2017-04-07T12:09:28.285Z,18.19
2017-04-07T12:10:28.899Z,18.15
2017-04-07T12:11:29.509Z,18.11
2017-04-07T12:12:30.114Z,18.11
2017-04-07T12:13:30.724Z,18.22
2017-04-07T12:14:31.339Z,18.34
2017-04-07T12:15:31.946Z,18.43
2017-04-07T12:16:32.553Z,18.50
2017-04-07T12:17:33.163Z,18.59
2017-04-07T12:18:33.776Z,18.66
2017-04-07T12:19:34.384Z,18.70
2017-04-07T12:20:34.999Z,18.73
2017-04-07T12:21:35.604Z,18.75
2017-04-07T12:22:36.219Z,18.80
2017-04-07T12:23:36.832Z,18.92
2017-04-07T12:24:37.438Z,18.89
2017-04-07T12:25:38.045Z,18.89
2017-04-07T12:26:38.676Z,19.02
2017-04-07T12:27:39.302Z,19.04
2017-04-07T12:28:39.910Z,19.08
2017-04-07T12:29:40.518Z,19.07
2017-04-07T12:30:41.127Z,19.11
2017-04-07T12:31:41.737Z,19.04
2017-04-07T12:32:42.346Z,19.04
2017-04-07T12:33:42.957Z,19.04
2017-04-07T12:34:43.586Z,19.16
2017-04-07T12:35:44.193Z,19.19
2017-04-07T12:36:44.802Z,19.15
2017-04-07T12:37:45.410Z,19.16
2017-04-07T12:38:46.020Z,19.22
2017-04-07T12:39:46.630Z,19.19
2017-04-07T12:40:47.238Z,19.21
2017-04-07T12:41:47.852Z,19.33
2017-04-07T12:42:48.463Z,19.27
2017-04-07T12:43:49.069Z,19.16
2017-04-07T12:44:49.678Z,19.16
2017-04-07T12:45:50.289Z,19.21
2017-04-07T12:46:50.897Z,19.21
2017-04-07T12:47:51.506Z,19.22
2017-04-07T12:48:52.115Z,19.16
2017-04-07T12:49:52.722Z,19.19
2017-04-07T12:50:53.334Z,19.21
2017-04-07T12:51:53.947Z,19.15
2017-04-07T12:52:54.553Z,19.14
2017-04-07T12:53:55.161Z,19.12
2017-04-07T12:54:55.775Z,19.15
2017-04-07T12:55:56.387Z,19.16
2017-04-07T12:56:56.996Z,19.18
2017-04-07T12:57:57.624Z,19.18
2017-04-07T12:58:58.230Z,19.21
2017-04-07T12:59:58.841Z,19.18
2017-04-07T13:00:59.451Z,19.16
2017-04-07T13:02:00.059Z,19.14
2017-04-07T13:03:00.669Z,19.22
2017-04-07T13:04:01.283Z,19.19
2017-04-07T13:05:01.888Z,19.33
2017-04-07T13:06:02.499Z,19.26
2017-04-07T13:07:03.108Z,19.29
2017-04-07T13:08:03.721Z,19.31
2017-04-07T13:09:04.332Z,19.24
2017-04-07T13:10:04.956Z,19.29
2017-04-07T13:11:05.570Z,19.30